TimeCDT,TemperatureF,Dew PointF,Humidity,Sea Level PressureIn,VisibilityMPH,Wind Direction,Wind SpeedMPH,Gust SpeedMPH,PrecipitationIn,Events,Conditions,WindDirDegrees,DateUTC
12:53 AM,44.1,32.0,63,30.31,10.0,NNE,3.5,-,N/A,,Overcast,30,2013-03-29 05:53:00
1:53 AM,44.1,30.9,60,30.31,10.0,Calm,Calm,-,N/A,,Overcast,0,2013-03-29 06:53:00
2:53 AM,42.1,33.1,70,30.30,10.0,Calm,Calm,-,N/A,,Overcast,0,2013-03-29 07:53:00
3:53 AM,44.1,30.9,60,30.30,10.0,Calm,Calm,-,N/A,,Overcast,0,2013-03-29 08:53:00
4:53 AM,44.1,30.9,60,30.30,10.0,Calm,Calm,-,0.00,,Overcast,0,2013-03-29 09:53:00
5:53 AM,43.0,33.1,68,30.30,10.0,NE,3.5,-,N/A,,Overcast,50,2013-03-29 10:53:00
6:53 AM,44.1,33.1,65,30.32,10.0,Calm,Calm,-,0.00,Rain,Light Rain,0,2013-03-29 11:53:00
7:53 AM,44.1,37.0,76,30.34,8.0,Calm,Calm,-,0.01,Rain,Light Rain,0,2013-03-29 12:53:00
8:53 AM,43.0,37.9,82,30.34,10.0,Calm,Calm,-,0.01,Rain,Light Rain,0,2013-03-29 13:53:00
9:53 AM,45.0,39.0,80,30.34,7.0,SSE,3.5,-,0.02,Rain,Light Rain,160,2013-03-29 14:53:00
10:53 AM,45.0,39.9,82,30.35,6.0,South,5.8,-,0.03,Rain,Light Rain,170,2013-03-29 15:53:00
11:53 AM,46.0,43.0,89,30.32,5.0,ESE,5.8,-,0.05,Rain,Light Rain,110,2013-03-29 16:53:00
12:26 PM,46.4,44.6,93,30.30,4.0,ESE,6.9,-,0.02,Rain,Light Rain,120,2013-03-29 17:26:00
12:53 PM,46.9,44.1,90,30.29,5.0,ESE,4.6,-,0.03,Rain,Light Rain,110,2013-03-29 17:53:00
1:53 PM,48.0,44.1,86,30.27,9.0,SE,4.6,-,0.00,,Overcast,130,2013-03-29 18:53:00
2:53 PM,48.9,45.0,86,30.25,3.0,SE,3.5,-,N/A,,Overcast,130,2013-03-29 19:53:00
3:02 PM,48.2,44.6,87,30.25,2.0,SE,3.5,-,0.01,Rain,Light Rain,130,2013-03-29 20:02:00
3:15 PM,48.2,44.6,87,30.24,2.5,SE,3.5,-,0.01,,Overcast,140,2013-03-29 20:15:00
3:28 PM,48.2,44.6,87,30.24,3.0,ESE,4.6,-,0.01,,Overcast,120,2013-03-29 20:28:00
3:36 PM,48.2,46.4,93,30.24,5.0,ESE,4.6,-,0.01,,Overcast,120,2013-03-29 20:36:00
3:53 PM,48.9,45.0,86,30.24,6.0,ESE,4.6,-,0.01,,Overcast,110,2013-03-29 20:53:00
4:13 PM,48.2,44.6,87,30.23,10.0,SE,5.8,-,N/A,,Overcast,140,2013-03-29 21:13:00
4:21 PM,48.2,44.6,87,30.22,10.0,SE,5.8,-,N/A,,Overcast,140,2013-03-29 21:21:00
4:53 PM,48.9,45.0,86,30.22,10.0,ESE,3.5,-,N/A,,Overcast,110,2013-03-29 21:53:00
5:09 PM,48.2,44.6,87,30.22,10.0,East,3.5,-,N/A,,Overcast,100,2013-03-29 22:09:00
5:29 PM,50.0,44.6,82,30.22,10.0,East,4.6,-,N/A,,Overcast,90,2013-03-29 22:29:00
5:53 PM,48.9,45.0,86,30.23,10.0,East,3.5,-,N/A,,Overcast,90,2013-03-29 22:53:00
6:53 PM,48.9,45.0,86,30.23,10.0,ENE,3.5,-,N/A,,Overcast,60,2013-03-29 23:53:00
7:32 PM,48.2,44.6,87,30.23,10.0,NE,4.6,-,N/A,,Overcast,50,2013-03-30 00:32:00
7:53 PM,48.0,45.0,89,30.24,9.0,NE,4.6,-,N/A,,Overcast,40,2013-03-30 00:53:00
8:24 PM,48.2,44.6,87,30.23,10.0,ENE,4.6,-,N/A,,Overcast,60,2013-03-30 01:24:00
8:53 PM,48.0,44.1,86,30.24,10.0,East,4.6,-,N/A,,Overcast,80,2013-03-30 01:53:00
9:44 PM,48.2,44.6,87,30.24,8.0,East,3.5,-,N/A,,Overcast,80,2013-03-30 02:44:00
9:53 PM,46.9,44.1,90,30.25,7.0,Calm,Calm,-,N/A,,Overcast,0,2013-03-30 02:53:00
10:15 PM,46.4,44.6,93,30.24,7.0,Calm,Calm,-,N/A,,Overcast,0,2013-03-30 03:15:00
10:53 PM,45.0,43.0,93,30.25,5.0,Calm,Calm,-,N/A,,Overcast,0,2013-03-30 03:53:00
11:53 PM,46.0,43.0,89,30.23,6.0,Calm,Calm,-,N/A,,Overcast,0,2013-03-30 04:53:00